Lake Edgewood, Indiana
Current Conditions -  °F | °C
As of 1:55 AM on Sunday 26 Oct 2014 (Local Time) from K1II Reporting Station
Clear Clear  
Wind Chill: 14°   Ceiling: Unl
Heat Index: 14°   Visibility: 10mi
Dew Point:   Wind: 6mph
Humidity: 48%   Direction: 320°NW
Pressure: 29.98"   Gusts: NA
Location:  39.4615°N, 86.4578°W
Report Text: K1II 260555Z AUTO 32005KT 10SM CLR 14/03 A2998 RMK AO2
Loading
Personal Weather Stations






























Interactive Weather Map
Tropical Storm Tracking
New forecast layout! Learn more

10-Day Weather Forecast

Advertisements
Track Severe Weather on mobile